Tiempo atmosférico en la estación meteorológica de Segovia, Segovia (1005 m.)



Fecha
DESCASC
Temp. máxima en grados centígrados (hora)
DESCASC
Temp. mínima en grados centígrados (hora)
DESCASC
Temp. media en grados centígrados
DESCASC
Racha de viento máxima en m/sg (hora)
DESCASC
Velocidad máxima media en intervalos de 10 minutos(hora)
DESCASC
Precipitaciones diarias en mm
DESCASC
Precipitaciones de 00:00 a 06:00 en mm
DESCASC
Precipitaciones de 06:00 a 12:00 en mm
DESCASC
Precipitaciones de 12:00 a 18:00 en mm
DESCASC
Precipitaciones de 18:00 a 24:00 en mm
DESCASC
30-11-2020 13.9 (15:10) 4.1 (05:30) 9 5 (07:50) 3.61 (07:50) 0 0 0 0 0
29-11-2020 14 (14:20) 3.6 (00:00) 8.8 5.28 (10:20) 3.33 (17:20) 0 0 0 0 0
28-11-2020 10.1 (12:40) 4 (00:00) 7.1 7.22 (21:40) 4.17 (21:50) 0 0 0 0 0
27-11-2020 10.6 (15:40) 8 (00:00) 9.3 13.06 (09:50) 8.61 (09:50) 0 0 0 0 0
26-11-2020 10.9 (22:30) 7.7 (00:00) 9.3 15.56 (21:50) 10.28 (00:40) 3 0 0 1.8 1.2
25-11-2020 12 (13:30) 1.4 (00:00) 6.7 16.94 (18:10) 11.11 (18:20) 0 0 0 0 0
24-11-2020 13.2 (15:20) 3.5 (00:00) 8.3 5 (22:20) 3.06 (22:20) 0 0 0 0 0
23-11-2020 15.3 (15:00) 2.7 (00:00) 9 4.44 (14:10) 2.22 (01:50) 0 0 0 0 0
22-11-2020 15.1 (15:40) 3.1 (00:00) 9.1 4.72 (14:20) 2.5 (11:50) 0 0 0 0 0
21-11-2020 15.1 (15:40) 2 (00:00) 8.6 4.44 (23:30) 2.5 (23:30) 0 0 0 0 0
20-11-2020 10.3 (16:40) 2.9 (00:00) 6.6 4.17 (12:40) 3.06 (19:00) 0 0 0 0 0
19-11-2020 17.1 (15:10) 6.9 (00:00) 12 6.11 (17:50) 3.61 (19:40) 0 0 0 0 0
18-11-2020 21.3 (15:30) 9.2 (00:00) 15.2 5.56 (04:30) 3.89 (04:20) 0 0 0 0 0
17-11-2020 20.5 (16:00) 5.3 (00:00) 12.9 3.61 (15:20) 2.5 (04:20) 0 0 0 0 0
16-11-2020 15.8 (15:00) 6.8 (00:00) 11.3 5.83 (03:40) 3.89 (02:20) 0.2 0.2 0 0 0
15-11-2020 17.1 (11:30) 10.1 (00:00) 13.6 13.33 (15:50) 9.44 (16:10) 0 0 0 0 0
14-11-2020 15.8 (16:00) 8.3 (00:00) 12.1 5.83 (15:50) 4.17 (16:10) 0.2 0 0 0 0.2
13-11-2020 14.3 (15:40) 5.6 (00:00) 10 5.83 (16:40) 3.61 (16:40) 0 0 0 0 0
12-11-2020 14.6 (15:20) 7.5 (00:00) 11.1 3.89 (03:50) 2.78 (03:00) 0 0 0 0 0
11-11-2020 16.3 (14:50) 4.3 (00:00) 10.3 7.5 (14:20) 5.83 (14:20) 0 0 0 0 0
10-11-2020 14 (15:20) 4.7 (00:00) 9.3 3.89 (14:50) 2.5 (12:00) 0 0 0 0 0
09-11-2020 14.5 (14:40) 6.9 (00:00) 10.7 8.06 (04:40) 5 (05:00) 0 0 0 0 0
08-11-2020 15.7 (15:40) 6.6 (00:00) 11.1 10 (18:30) 6.67 (18:10) 0.2 0 0 0 0.2
07-11-2020 13.1 (04:00) 7.4 (00:00) 10.3 16.67 (03:50) 11.67 (04:10) 5 2.4 0 1 1.6
06-11-2020 17.9 (13:00) 11.3 (00:00) 14.6 22.5 (20:40) 13.06 (20:40) 5.8 0 0 0 5.8
05-11-2020 13 (14:30) 8.5 (00:00) 10.8 17.5 (19:50) 10.83 (19:50) 2.8 0.2 1.2 1.2 0.2
04-11-2020 8.9 (22:20) 4.3 (00:00) 6.6 11.11 (21:20) 6.39 (20:30) 0.2 0 0 0.2 0
03-11-2020 13 (03:00) 6.4 (00:00) 9.7 7.5 (09:20) 5.28 (09:20) 9.2 0.8 7.8 0.4 0.2
02-11-2020 16.9 (13:50) 10.5 (00:00) 13.7 3.33 (13:10) 2.5 (23:30) 0 0 0 0 0

Gráficas

Temp. máximas Temp. mínimas Temp. medias Precipitaciones Rachas de viento máximas Velocidades máximas media en intervalos de 10 minutos

Datos horarios

Fecha y hora oficial Temperatura (ºC) Velocidad del viento (km/h) Dirección del viento Racha (km/h) Dirección de racha Precipitación (mm) Presión (hPa) Tendencia (hPa) Humedad (%)
2020-12-01 23:00:00 3.9 4 Sudoeste 6 Sudoeste 0 905.4 -0.7 89
2020-12-01 22:00:00 4.7 4 Este 6 Este 0 905.5 -- 87
2020-12-01 21:00:00 4.7 3 Este 5 Nordeste 0 905.8 -- 88
2020-12-01 20:00:00 5.1 0 Calma 7 Sur 0 906.1 -- 85
2020-12-01 19:00:00 6 4 Oeste 8 Oeste 0 906.4 -- 82
2020-12-01 18:00:00 7 6 Oeste 13 Sudoeste 0 906.2 -- 81
2020-12-01 17:00:00 8.7 8 Oeste 17 Oeste 0 906.4 -- 74
2020-12-01 16:00:00 9.7 10 Oeste 17 Oeste 0 906.3 -- 71
2020-12-01 15:00:00 10 9 Oeste 19 Sudoeste 0 906.6 -- 72
2020-12-01 14:00:00 10.2 6 Oeste 12 Noroeste 0 907.3 -- 71
2020-12-01 13:00:00 9.3 6 Oeste 12 Sudoeste 0 908 -- 73
2020-12-01 12:00:00 7.5 4 Oeste 10 Oeste 0 908.6 -- 77
2020-12-01 11:00:00 6.4 6 Oeste 12 Sudoeste 0 908.5 -- 80
2020-12-01 10:00:00 5.5 4 Sur 5 Sudoeste 0 908.7 -- 79
2020-12-01 09:00:00 3 3 Nordeste 5 Este 0 908.5 -- 83
2020-12-01 08:00:00 2.8 4 Este 6 Este 0 908 -- 84
2020-12-01 07:00:00 2.7 5 Este 10 Sudeste 0 907.9 -- 85
2020-12-01 06:00:00 2.8 4 Este 11 Sur 0 908 -- 85
2020-12-01 05:00:00 3.1 5 Este 8 Este 0 908 -- 83
2020-12-01 04:00:00 3.6 4 Este 10 Sur 0 908.1 -- 82
2020-12-01 03:00:00 3.8 5 Este 8 Este 0 908.6 -- 80
2020-12-01 02:00:00 4.8 6 Nordeste 9 Nordeste 0 908.4 -- 80
2020-12-01 01:00:00 5 4 Este 7 Este 0 908.5 -- 80
2020-12-01 00:00:00 5.2 4 Este 11 Sudeste 0 908.9 -- 79
2020-11-30 23:00:00 5.3 6 Este 10 Sudeste 0 908.5 -- 82
2020-11-30 22:00:00 5.8 3 Sudeste 7 Este 0 908.4 -- 82
2020-11-30 21:00:00 6.3 4 Este 10 Sudeste 0 908 -- 83
2020-11-30 20:00:00 7.5 3 Este 7 Este 0 907.6 -- 78
2020-11-30 19:00:00 9.5 3 Este 8 Norte 0 907.3 -- 72
2020-11-30 18:00:00 10.7 4 Norte 11 Noroeste 0 907.4 -- 66
2020-11-30 17:00:00 12.3 6 Noroeste 12 Norte 0 907 -- 64
2020-11-30 16:00:00 13.2 6 Noroeste 13 Noroeste 0 906.8 -- 60
2020-11-30 15:00:00 13.8 5 Oeste 11 Oeste 0 906.7 -- 57
2020-11-30 14:00:00 11.2 3 Oeste 8 Sudoeste 0 907 -- 66
2020-11-30 13:00:00 10.5 5 Oeste 8 Oeste 0 907.3 -- 70
2020-11-30 12:00:00 10.1 0 Calma 6 Oeste 0 907.8 -- 71
2020-11-30 11:00:00 8.7 3 Sudeste 5 Este 0 907.6 -- 73
2020-11-30 10:00:00 6.4 4 Nordeste 9 Nordeste 0 907 -- 82
2020-11-30 09:00:00 5.7 6 Nordeste 15 Este 0 906.4 -- 81
2020-11-30 08:00:00 5.8 9 Este 18 Este 0 905.7 -- 80
2020-11-30 07:00:00 4.5 6 Este 9 Este 0 905.7 -- 84
2020-11-30 06:00:00 4.4 4 Este 7 Sur 0 905.5 -- 84
2020-11-30 05:00:00 4.5 6 Sur 12 Este 0 905.4 -- 82
2020-11-30 04:00:00 5 8 Este 12 Este 0 904.9 -- 81
2020-11-30 03:00:00 5.4 7 Nordeste 10 Este 0 904.8 -- 82
2020-11-30 02:00:00 5.2 6 Este 10 Este 0 904.6 -- 82
2020-11-30 01:00:00 5.2 5 Sur 9 Sur 0 904.8 -- 81
2020-11-30 00:00:00 5.8 5 Este 9 Este 0 904.1 -- 79
2020-11-29 23:00:00 5.6 4 Este 8 Este 0 903.9 -- 81
2020-11-29 22:00:00 6.2 4 Sudeste 15 Este 0 903.7 -- 78
2020-11-29 21:00:00 7 9 Este 14 Este 0 903.3 -- 78
2020-11-29 20:00:00 7.7 6 Este 16 Este 0 903 -- 77
2020-11-29 19:00:00 8.9 5 Este 8 Este 0 902.5 -- 72
2020-11-29 18:00:00 10.1 5 Noroeste 16 Sudoeste 0 902.1 -- 67
2020-11-29 17:00:00 12.2 8 Noroeste 14 Noroeste 0 901.5 -- 55
2020-11-29 16:00:00 13.7 5 Noroeste 16 Oeste 0 901 -- 52
2020-11-29 15:00:00 13.7 7 Oeste 17 Oeste 0 900.8 -- 51
2020-11-29 14:00:00 13.8 5 Sudoeste 15 Oeste 0 900.9 -- 51
2020-11-29 13:00:00 11.8 5 Noroeste 12 Norte 0 901.1 -- 56
2020-11-29 12:00:00 10.9 4 Norte 13 Noroeste 0 901.1 -- 61
2020-11-29 11:00:00 6.4 4 Norte 19 Sudoeste 0 900.7 -- 78
2020-11-29 10:00:00 8.1 6 Este 11 Este 0 899.6 -- 69
2020-11-29 09:00:00 5 4 Sur 12 Este 0 899.1 -- 78
2020-11-29 08:00:00 4.5 5 Este 11 Este 0 898.3 -- 80
2020-11-29 07:00:00 4.1 3 Este 10 Este 0 898 -- 80
2020-11-29 06:00:00 3.7 5 Sudeste 7 Este 0 897.6 -- 81
2020-11-29 05:00:00 4.5 8 Sudoeste 11 Sudoeste 0 897 -- 80
2020-11-29 04:00:00 4.2 6 Este 9 Este 0 896.9 -- 82
2020-11-29 03:00:00 4.4 3 Sur 10 Este 0 896.8 -- 79
2020-11-29 02:00:00 4.8 6 Nordeste 10 Este 0 896.6 -- 78
2020-11-29 01:00:00 4.6 5 Este 10 Sur 0 896.6 -- 81
2020-11-29 00:00:00 4.8 6 Sudeste 14 Sudeste 0 896.1 -- 80
2020-11-28 23:00:00 4.3 6 Sudeste 13 Sudoeste 0 895.8 -- 85
2020-11-28 22:00:00 6.4 9 Sudeste 26 Este 0 895.6 -- 73
2020-11-28 21:00:00 6.2 6 Este 13 Este 0 895.1 -- 77
2020-11-28 20:00:00 7.2 2 Nordeste 14 Sur 0 894.5 -- 73
2020-11-28 19:00:00 8.3 4 Este 12 Sur 0 894 -- 72
2020-11-28 18:00:00 8.7 7 Sudeste 15 Sudeste 0 893.4 -- 72
2020-11-28 17:00:00 9.2 3 Sudeste 7 Oeste 0 893.1 -- 76
2020-11-28 16:00:00 9.5 4 Sudoeste 10 Noroeste 0 892.6 -- 74
2020-11-28 15:00:00 9.9 5 Oeste 9 Noroeste 0 892.1 -- 74
2020-11-28 14:00:00 9.7 9 Oeste 15 Oeste 0 891.8 -- 69
2020-11-28 13:00:00 9.5 8 Oeste 16 Oeste 0 892.2 -- 76
2020-11-28 12:00:00 8.8 7 Oeste 12 Oeste 0 892.7 -- 79
2020-11-28 11:00:00 7.9 6 Oeste 11 Oeste 0 892.8 -- 80
2020-11-28 10:00:00 6.5 5 Oeste 10 Sudoeste 0 892.6 -- 85
2020-11-28 09:00:00 4.6 4 Este 6 Sudeste 0 892 -- 95
2020-11-28 08:00:00 4.3 5 Oeste 9 Oeste 0 891.7 -- 92
2020-11-28 07:00:00 5.5 2 Sur 13 Sudeste 0 891.5 -- 91
2020-11-28 06:00:00 6.3 9 Sudeste 11 Sudeste 0 891.6 -- 90
2020-11-28 05:00:00 6 3 Sudeste 10 Sudoeste 0 891.7 -- 91
2020-11-28 04:00:00 5.6 5 Sur 11 Sudoeste 0 892.2 -- 92
2020-11-28 03:00:00 5.6 5 Oeste 15 Oeste 0 892.2 -- 90
2020-11-28 02:00:00 5.9 4 Sudeste 14 Sudoeste 0 892.5 -- 89
2020-11-28 01:00:00 7.1 5 Oeste 13 Este 0 892.7 -- 83
2020-11-28 00:00:00 8.7 5 Este 26 Este 0 892.8 -- 68
2020-11-27 23:00:00 9.5 16 Este 26 Este 0 893.2 -- 65
2020-11-27 22:00:00 9.7 12 Nordeste 20 Nordeste 0 893.5 -- 63
2020-11-27 21:00:00 9.4 6 Nordeste 17 Nordeste 0 893.5 -- 64
2020-11-27 20:00:00 9.7 7 Nordeste 24 Nordeste 0 893.7 -- 65
2020-11-27 19:00:00 9 4 Noroeste 16 Oeste 0 893.7 -- 71
2020-11-27 18:00:00 10 4 Este 29 Este 0 893.5 -- 63
2020-11-27 17:00:00 10.1 15 Este 30 Este 0 893.2 -- 62
2020-11-27 16:00:00 10.4 18 Este 32 Sudeste 0 893.3 -- 62
2020-11-27 15:00:00 10 5 Sudoeste 33 Este 0 893.5 -- 63
2020-11-27 14:00:00 9 9 Este 24 Sudeste 0 894.1 -- 66
2020-11-27 13:00:00 8.3 6 Nordeste 27 Este 0 895.3 -- 72
2020-11-27 12:00:00 9.1 21 Este 41 Sudeste 0 895.9 -- 71
2020-11-27 11:00:00 9.4 27 Este 45 Este 0 896.4 -- 68
2020-11-27 10:00:00 9.4 29 Este 47 Este 0 896.2 -- 71
2020-11-27 09:00:00 9.3 14 Nordeste 36 Nordeste 0 895.8 -- 70
2020-11-27 08:00:00 9.5 21 Nordeste 36 Nordeste 0 895.7 -- 68
2020-11-27 07:00:00 9.1 18 Este 28 Este 0 895.5 -- 69
2020-11-27 06:00:00 9.6 14 Este 27 Este 0 895.8 -- 66
2020-11-27 05:00:00 10.1 16 Este 26 Este 0 896 -- 63
2020-11-27 04:00:00 10 11 Este 22 Este 0 896.4 -- 63
2020-11-27 03:00:00 9.8 11 Este 18 Sudeste 0 896.5 -- 66
2020-11-27 02:00:00 9.8 11 Sudeste 28 Este 0 896.7 -- 64
2020-11-27 01:00:00 10.4 18 Este 29 Este 0 896.9 -- 66
2020-11-27 00:00:00 10.4 7 Norte 54 Sudeste 0 896.8 -- 66
2020-11-26 23:00:00 10.6 30 Sudeste 49 Sudeste 0 896.5 -- 65
2020-11-26 22:00:00 10.7 32 Sudeste 56 Sudeste 0 896.4 -- 68
2020-11-26 21:00:00 10.1 23 Sudeste 52 Sudeste 0.4 896.3 -- 73
2020-11-26 20:00:00 9.8 16 Sudeste 34 Sudeste 0.2 896 -- 75
2020-11-26 19:00:00 9.6 12 Este 39 Sudeste 0.6 895.5 -- 79
2020-11-26 18:00:00 9.2 17 Sudeste 52 Sudeste 1 895 -- 82
2020-11-26 17:00:00 9.2 15 Este 34 Este 0.4 894.9 -- 81
2020-11-26 16:00:00 9.2 22 Este 36 Este 0 894.8 -- 79
2020-11-26 15:00:00 9 22 Este 40 Este 0.2 895.1 -- 78
2020-11-26 14:00:00 8.8 19 Este 42 Este 0.2 895.7 -- 77
2020-11-26 13:00:00 10.3 23 Este 47 Este 0 896.1 -- 68
2020-11-26 12:00:00 10 27 Este 42 Este 0 896.6 -- 70
2020-11-26 11:00:00 9.7 25 Este 47 Este 0 896.3 -- 72
2020-11-26 10:00:00 9.7 21 Sudeste 34 Sudeste 0 896 -- 71
2020-11-26 09:00:00 8.1 18 Sudeste 45 Sudeste 0 895.7 -- 70
2020-11-26 08:00:00 7.9 18 Sudeste 34 Sudeste 0 895.2 -- 71
2020-11-26 07:00:00 7.8 9 Este 41 Sudeste 0 895 -- 71
2020-11-26 06:00:00 7.9 17 Sudeste 51 Sudeste 0 894.8 -- 72
2020-11-26 05:00:00 8.3 31 Sudeste 51 Sudeste 0 894.5 -- 75
2020-11-26 04:00:00 8.4 30 Sudeste 53 Sudeste 0 895 -- 73
2020-11-26 03:00:00 8.3 33 Sudeste 53 Sudeste 0 894.7 -- 75
2020-11-26 02:00:00 8.4 18 Sudeste 43 Sudeste 0 895.1 -- 74
2020-11-26 01:00:00 9 33 Sudeste 54 Sudeste 0 895.5 -- 74
2020-11-26 00:00:00 9.6 6 Nordeste 43 Este 0 895.6 -- 68
2020-11-25 23:00:00 9.3 12 Nordeste 38 Sudeste 0 895.6 -- 72
2020-11-25 22:00:00 9.4 24 Sudeste 42 Sudeste 0 895.7 -- 69
2020-11-25 21:00:00 9.2 30 Sudeste 41 Sudeste 0 895.5 -- 67
2020-11-25 20:00:00 9.8 12 Este 41 Este 0 895.5 -- 62
2020-11-25 19:00:00 9.7 26 Este 61 Sudeste 0 895.5 -- 61
2020-11-25 18:00:00 9.6 31 Sudeste 51 Sudeste 0 895.6 -- 63
2020-11-25 17:00:00 9.3 22 Este 47 Sudeste 0 896.3 -- 63
2020-11-25 16:00:00 9.2 32 Sudeste 53 Sudeste 0 896.2 -- 60
2020-11-25 15:00:00 10.6 32 Sudeste 51 Sudeste 0 896.3 -- 55
2020-11-25 14:00:00 11.7 20 Sudeste 33 Sudeste 0 897 -- 54
2020-11-25 13:00:00 11.6 17 Sudeste 36 Sudeste 0 898 -- 56
2020-11-25 12:00:00 11.4 9 Sudoeste 24 Sudeste 0 898.8 -- 53
2020-11-25 11:00:00 9.3 5 Noroeste 11 Oeste 0 899.3 -- 59
2020-11-25 10:00:00 7.7 4 Sudeste 7 Sudeste 0 899.1 -- 68
2020-11-25 09:00:00 4.5 2 Sur 17 Sur 0 899.5 -- 75
2020-11-25 08:00:00 2.8 4 Este 9 Este 0 899.6 -- 79
2020-11-25 07:00:00 3.2 5 Nordeste 8 Este 0 899.9 -- 79
2020-11-25 06:00:00 2 6 Este 11 Sudeste 0 900 -- 84
2020-11-25 05:00:00 1.7 10 Sudoeste 19 Sudoeste 0 900.7 -- 82
2020-11-25 04:00:00 2.3 7 Este 9 Este 0 901 -- 80
2020-11-25 03:00:00 2.3 4 Sudeste 9 Sudeste 0 901.3 -- 80
2020-11-25 02:00:00 2.3 5 Sudoeste 10 Oeste 0 901.6 -- 74
2020-11-25 01:00:00 3.2 3 Este 11 Este 0 902.1 -- 75
2020-11-25 00:00:00 4.5 9 Este 15 Este 0 902.5 -- 74
2020-11-24 23:00:00 4.3 6 Nordeste 18 Este 0 903 -- 75
2020-11-24 22:00:00 4.9 8 Este 12 Este 0 903.5 -- 77
2020-11-24 21:00:00 6.1 6 Nordeste 8 Nordeste 0 903.8 -- 76
2020-11-24 20:00:00 7.7 3 Nordeste 4 Nordeste 0 904 -- 72
2020-11-24 19:00:00 8.6 2 Norte 9 Oeste 0 904 -- 69
2020-11-24 18:00:00 9.6 7 Oeste 12 Oeste 0 904.1 -- 63
2020-11-24 17:00:00 11.5 7 Oeste 14 Oeste 0 903.8 -- 56
2020-11-24 16:00:00 12.4 6 Oeste 12 Noroeste 0 904 -- 49
2020-11-24 15:00:00 12.7 3 Noroeste 11 Oeste 0 904.6 -- 50
2020-11-24 14:00:00 12.7 8 Oeste 16 Oeste 0 905.4 -- 50
2020-11-24 13:00:00 12.6 9 Oeste 15 Oeste 0 906.2 -- 48
2020-11-24 12:00:00 12 6 Oeste 10 Oeste 0 907.1 -- 50
2020-11-24 11:00:00 9.9 4 Sudoeste 10 Sudoeste 0 907.7 -- 52
2020-11-24 10:00:00 7.4 2 Este 6 Este 0 907.9 -- 60
2020-11-24 09:00:00 5.1 4 Este 9 Nordeste 0 907.7 -- 63
2020-11-24 08:00:00 4 7 Nordeste 9 Este 0 907.3 -- 65
2020-11-24 07:00:00 3.6 6 Este 10 Este 0 907.2 -- 67
2020-11-24 06:00:00 3.7 6 Este 10 Nordeste 0 907.2 -- 66
2020-11-24 05:00:00 3.8 5 Nordeste 8 Este 0 907.3 -- 70
2020-11-24 04:00:00 4.5 3 Nordeste 12 Este 0 907.6 -- 72
2020-11-24 03:00:00 4.5 5 Este 12 Este 0 908 -- 73
2020-11-24 02:00:00 4.8 7 Este 11 Este 0 908.6 -- 73
2020-11-24 01:00:00 4.9 5 Este 8 Este 0 909.3 -- 75
2020-11-24 00:00:00 5.4 5 Nordeste 8 Este 0 909.5 -- 73
2020-11-23 23:00:00 6.1 6 Nordeste 7 Nordeste 0 909.6 -- 71
2020-11-23 22:00:00 6.6 5 Nordeste 6 Nordeste 0 909.8 -- 69
2020-11-23 21:00:00 7 3 Este 8 Este 0 909.9 -- 65
2020-11-23 20:00:00 8.3 6 Este 11 Este 0 910 -- 65
2020-11-23 19:00:00 10.3 5 Este 8 Este 0 910 -- 50
2020-11-23 18:00:00 12.1 4 Norte 9 Noroeste 0 909.9 -- 42
2020-11-23 17:00:00 13.8 5 Noroeste 9 Noroeste 0 909.8 -- 39
2020-11-23 16:00:00 14.4 6 Noroeste 12 Noroeste 0 909.6 -- 33
2020-11-23 15:00:00 15.2 6 Oeste 16 Noroeste 0 910 -- 37
2020-11-23 14:00:00 14.8 6 Oeste 11 Oeste 0 910.4 -- 40
2020-11-23 13:00:00 13.3 4 Oeste 8 Oeste 0 911.2 -- 39
2020-11-23 12:00:00 11.4 5 Oeste 9 Oeste 0 911.7 -- 48
2020-11-23 11:00:00 10.3 4 Oeste 7 Noroeste 0 911.9 -- 60
2020-11-23 10:00:00 7.1 4 Nordeste 7 Este 0 911.9 -- 63
2020-11-23 09:00:00 3.7 5 Nordeste 8 Este 0 911.5 -- 74
2020-11-23 08:00:00 2.8 6 Este 8 Este 0 911.4 -- 77
2020-11-23 07:00:00 3.3 5 Este 10 Sudeste 0 911.1 -- 73
2020-11-23 06:00:00 3.2 8 Este 10 Nordeste 0 911.2 -- 75
2020-11-23 05:00:00 3.7 7 Este 9 Este 0 911.3 -- 72
2020-11-23 04:00:00 4.1 5 Este 10 Nordeste 0 911.5 -- 70
2020-11-23 03:00:00 4 7 Nordeste 10 Este 0 911.4 -- 72
2020-11-23 02:00:00 4.4 8 Nordeste 10 Nordeste 0 911.7 -- 72
2020-11-23 01:00:00 4.5 7 Este 8 Nordeste 0 912 -- 73
2020-11-23 00:00:00 4.9 7 Nordeste 9 Este 0 912.1 -- 73
2020-11-22 23:00:00 5.4 5 Nordeste 8 Nordeste 0 912.1 -- 72
2020-11-22 22:00:00 5.9 6 Este 12 Este 0 912 -- 70
2020-11-22 21:00:00 6.5 6 Nordeste 10 Este 0 911.8 -- 69
2020-11-22 20:00:00 8 7 Este 11 Nordeste 0 911.6 -- 64
2020-11-22 19:00:00 10.3 5 Este 8 Este 0 911.3 -- 52
2020-11-22 18:00:00 12.3 5 Oeste 9 Oeste 0 910.9 -- 44
2020-11-22 17:00:00 14.3 6 Oeste 13 Noroeste 0 910.9 -- 40
2020-11-22 16:00:00 14.9 4 Noroeste 11 Oeste 0 910.8 -- 38
2020-11-22 15:00:00 14.5 6 Oeste 17 Noroeste 0 911.1 -- 38
2020-11-22 14:00:00 14.1 8 Oeste 13 Oeste 0 911.5 -- 39
2020-11-22 13:00:00 14.1 6 Sudoeste 13 Oeste 0 912.1 -- 42
2020-11-22 12:00:00 13.3 8 Sudoeste 13 Sudoeste 0 912.8 -- 38
2020-11-22 11:00:00 12 8 Sudoeste 12 Sudoeste 0 912.9 -- 45
2020-11-22 10:00:00 8.4 3 Este 8 Sudeste 0 912.7 -- 51
2020-11-22 09:00:00 4.8 5 Este 8 Este 0 912.3 -- 54
2020-11-22 08:00:00 3.3 6 Nordeste 8 Nordeste 0 911.9 -- 57
2020-11-22 07:00:00 3.5 4 Este 11 Este 0 911.8 -- 56
2020-11-22 06:00:00 3.5 7 Este 9 Este 0 911.4 -- 57
2020-11-22 05:00:00 3.1 7 Este 9 Nordeste 0 911.4 -- 61
2020-11-22 04:00:00 3.8 5 Nordeste 8 Nordeste 0 911.2 -- 61
2020-11-22 03:00:00 4.3 4 Este 9 Sudeste 0 911.1 -- 60
2020-11-22 02:00:00 4.6 6 Este 9 Este 0 911 -- 60
2020-11-22 01:00:00 4.7 4 Este 10 Sudeste 0 911.1 -- 58
2020-11-22 00:00:00 4.7 9 Este 16 Este 0 911 -- 61
2020-11-21 23:00:00 5.2 7 Nordeste 12 Este 0 911.4 -- 64
2020-11-21 22:00:00 6.1 5 Nordeste 8 Nordeste 0 911.3 -- 64
2020-11-21 21:00:00 6.9 5 Este 7 Este 0 911.2 -- 70
2020-11-21 20:00:00 8.2 4 Este 6 Este 0 911 -- 66
2020-11-21 19:00:00 10.1 5 Este 7 Este 0 910.8 -- 54
2020-11-21 18:00:00 12.6 7 Oeste 8 Oeste 0 910.6 -- 43
2020-11-21 17:00:00 14.8 4 Oeste 8 Oeste 0 910.3 -- 36
2020-11-21 16:00:00 14.9 3 Sudoeste 10 Oeste 0 910.2 -- 35
2020-11-21 15:00:00 14.6 7 Sudoeste 14 Sudoeste 0 910.3 -- 40
2020-11-21 14:00:00 13.6 4 Oeste 9 Oeste 0 910.6 -- 39
2020-11-21 13:00:00 12 3 Sudoeste 7 Oeste 0 911.2 -- 45
2020-11-21 12:00:00 9.9 4 Sudoeste 8 Oeste 0 911.9 -- 56
2020-11-21 11:00:00 8.1 6 Oeste 9 Oeste 0 912.1 -- 65
2020-11-21 10:00:00 6.5 2 Sur 5 Sudoeste 0 911.7 -- 69
2020-11-21 09:00:00 3.7 3 Este 5 Sudeste 0 911.3 -- 72
2020-11-21 08:00:00 2.3 4 Este 6 Este 0 911 -- 78
2020-11-21 07:00:00 2.1 3 Este 6 Sudoeste 0 910.9 -- 79
2020-11-21 06:00:00 2.5 4 Nordeste 6 Este 0 911.2 -- 75
2020-11-21 05:00:00 3 4 Sudeste 9 Nordeste 0 911.4 -- 71
2020-11-21 04:00:00 2.9 6 Nordeste 10 Este 0 911.5 -- 74
2020-11-21 03:00:00 3.5 8 Sudeste 12 Sudeste 0 911.8 -- 73
2020-11-21 02:00:00 3.1 4 Nordeste 6 Este 0 912.3 -- 79
2020-11-21 01:00:00 3.4 3 Sudoeste 8 Nordeste 0 912.8 -- 78
2020-11-21 00:00:00 4.1 5 Este 9 Sudeste 0 913.1 -- 78
2020-11-20 23:00:00 4.5 3 Sudeste 13 Nordeste 0 913.5 -- 79
2020-11-20 22:00:00 5 7 Este 12 Este 0 913.9 -- 81
2020-11-20 21:00:00 5.6 7 Este 11 Este 0 913.7 -- 81
2020-11-20 20:00:00 5.8 4 Este 12 Sudeste 0 914 -- 78
2020-11-20 19:00:00 6.8 11 Sudeste 12 Sur 0 914 -- 70
2020-11-20 18:00:00 8.6 5 Sudoeste 11 Sudoeste 0 914.2 -- 61
2020-11-20 17:00:00 10 8 Oeste 12 Sudoeste 0 914 -- 58
2020-11-20 16:00:00 9.9 7 Noroeste 15 Noroeste 0 914.3 -- 60
2020-11-20 15:00:00 9.2 6 Noroeste 13 Noroeste 0 914.2 -- 71
2020-11-20 14:00:00 8.1 5 Oeste 12 Oeste 0 915.3 -- 77
2020-11-20 13:00:00 6.8 6 Oeste 15 Oeste 0 915.6 -- 87
2020-11-20 12:00:00 4.9 5 Noroeste 12 Sudoeste 0 916.4 -- 94
2020-11-20 11:00:00 4.2 5 Oeste 8 Oeste 0 916.6 -- 100
2020-11-20 10:00:00 3.6 5 Sudoeste 10 Sudoeste 0 916.3 -- 100
2020-11-20 09:00:00 3.3 4 Oeste 13 Sudoeste 0 916.7 -- 100
2020-11-20 08:00:00 2.9 8 Sur 13 Sur 0 916.2 -- 100
2020-11-20 07:00:00 3.2 8 Sudoeste 12 Sudoeste 0 916.4 -- 99
2020-11-20 06:00:00 3.3 5 Sur 13 Sudoeste 0 916.5 -- 99
2020-11-20 05:00:00 4.6 6 Sudoeste 10 Sudeste 0 916.5 -- 99
2020-11-20 04:00:00 4.4 5 Sur 8 Sur 0 916.8 -- 98
2020-11-20 03:00:00 4.9 0 Calma 13 Noroeste 0 917 -- 97
2020-11-20 02:00:00 5.5 6 Sur 10 Sur 0 917.1 -- 91
2020-11-20 01:00:00 6.4 3 Este 6 Nordeste 0 917.4 -- 89
2020-11-20 00:00:00 7 4 Sudeste 8 Sudeste 0 917.7 -- 86
2020-11-19 23:00:00 8 7 Este 11 Este 0 917.8 -- 85
2020-11-19 22:00:00 9.3 6 Nordeste 18 Este 0 917.4 -- 82
2020-11-19 21:00:00 10.2 12 Nordeste 20 Nordeste 0 917.5 -- 83
2020-11-19 20:00:00 11.1 13 Nordeste 19 Nordeste 0 917.5 -- 79
2020-11-19 19:00:00 12.9 9 Nordeste 17 Nordeste 0 917.3 -- 72
2020-11-19 18:00:00 14.6 10 Norte 22 Norte 0 916.9 -- 63
2020-11-19 17:00:00 16.4 6 Norte 18 Norte 0 916.7 -- 56
2020-11-19 16:00:00 16.9 5 Norte 18 Norte 0 916.2 -- 58
2020-11-19 15:00:00 16.8 4 Norte 18 Oeste 0 916.7 -- 57
2020-11-19 14:00:00 16 8 Noroeste 17 Oeste 0 917.2 -- 60
2020-11-19 13:00:00 15.4 5 Oeste 10 Oeste 0 917.2 -- 61
2020-11-19 12:00:00 13.9 6 Oeste 11 Oeste 0 917.9 -- 64
2020-11-19 11:00:00 13.5 4 Oeste 9 Oeste 0 918.1 -- 64
2020-11-19 10:00:00 11.1 4 Norte 7 Norte 0 918.1 -- 67
2020-11-19 09:00:00 9.3 5 Este 14 Nordeste 0 916.9 -- 70
2020-11-19 08:00:00 8 4 Norte 11 Este 0 916.2 -- 72
2020-11-19 07:00:00 8.7 8 Este 12 Este 0 915.6 -- 70
2020-11-19 06:00:00 8.9 7 Este 11 Este 0 915.3 -- 71
2020-11-19 05:00:00 8.8 6 Nordeste 12 Este 0 915.1 -- 71
2020-11-19 04:00:00 9.1 6 Este 12 Este 0 914.9 -- 70
2020-11-19 03:00:00 10 9 Este 12 Este 0 914.6 -- 65
2020-11-19 02:00:00 10.5 8 Este 14 Nordeste 0 914.6 -- 61
2020-11-19 01:00:00 10 8 Este 12 Nordeste 0 914.7 -- 62
2020-11-19 00:00:00 10.6 8 Nordeste 10 Este 0 914.6 -- 58
2020-11-18 23:00:00 10.3 6 Este 12 Este 0 914.6 -- 60
2020-11-18 22:00:00 11.2 8 Este 11 Este 0 914.3 -- 57
2020-11-18 21:00:00 11.6 6 Este 12 Este 0 913.5 -- 57
2020-11-18 20:00:00 12.8 6 Este 17 Este 0 913.2 -- 53
2020-11-18 19:00:00 14.6 6 Este 10 Este 0 912.8 -- 49
2020-11-18 18:00:00 18.1 4 Noroeste 8 Oeste 0 912.3 -- 35
2020-11-18 17:00:00 20.1 5 Oeste 10 Noroeste 0 912 -- 31
2020-11-18 16:00:00 21.1 5 Oeste 11 Sudoeste 0 912 -- 28
2020-11-18 15:00:00 20.9 5 Sudoeste 14 Oeste 0 911.9 -- 28
2020-11-18 14:00:00 20.5 6 Oeste 16 Sudoeste 0 912.2 -- 28
2020-11-18 13:00:00 20.4 6 Sudoeste 14 Sudoeste 0 912.7 -- 31
2020-11-18 12:00:00 18.7 6 Sudoeste 10 Sudoeste 0 913 -- 42
2020-11-18 11:00:00 17.6 4 Sudoeste 10 Oeste 0 912.9 -- 49
2020-11-18 10:00:00 13.7 6 Este 20 Este 0 912.6 -- 52
2020-11-18 09:00:00 10.7 9 Este 15 Este 0 912.5 -- 56
2020-11-18 08:00:00 9.3 8 Este 20 Este 0 912.1 -- 60
2020-11-18 07:00:00 9.8 11 Este 18 Este 0 911.8 -- 59
2020-11-18 06:00:00 9.7 12 Este 17 Este 0 911.7 -- 59
2020-11-18 05:00:00 10 11 Este 20 Este 0 911.5 -- 58
2020-11-18 04:00:00 9.9 9 Este 17 Este 0 911.6 -- 58
2020-11-18 03:00:00 9.8 8 Este 14 Este 0 911.5 -- 59
2020-11-18 02:00:00 10.6 9 Este 13 Nordeste 0 911.6 -- 56
2020-11-18 01:00:00 10.4 8 Este 12 Este 0 911.9 -- 59
2020-11-18 00:00:00 10.3 8 Este 11 Este 0 911.8 -- 61
2020-11-17 23:00:00 10.5 8 Este 10 Este 0 911.8 -- 60
2020-11-17 22:00:00 10.6 8 Este 10 Nordeste 0 911.8 -- 55
2020-11-17 21:00:00 11 6 Este 9 Este 0 911.7 -- 55
2020-11-17 20:00:00 11.5 4 Este 8 Este 0 911.6 -- 55
2020-11-17 19:00:00 14 8 Este 11 Este 0 911 -- 49
2020-11-17 18:00:00 18.2 2 Oeste 7 Oeste 0 910.6 -- 29
2020-11-17 17:00:00 19.9 4 Oeste 10 Oeste 0 910.7 -- 29
2020-11-17 16:00:00 20.4 5 Sudoeste 13 Sudoeste 0 910.6 -- 27
2020-11-17 15:00:00 20 5 Sudoeste 10 Sudoeste 0 910.7 -- 30
2020-11-17 14:00:00 19.2 6 Sudoeste 11 Oeste 0 910.8 -- 30
2020-11-17 13:00:00 17.8 6 Oeste 11 Oeste 0 911.5 -- 30
2020-11-17 12:00:00 15.6 3 Sur 10 Oeste 0 912.2 -- 46
2020-11-17 11:00:00 12.9 6 Oeste 8 Oeste 0 912.3 -- 55
2020-11-17 10:00:00 11.1 3 Este 4 Este 0 912 -- 58
2020-11-17 09:00:00 7.4 3 Este 6 Nordeste 0 911.6 -- 67
2020-11-17 08:00:00 5.3 6 Este 9 Este 0 911.2 -- 67
2020-11-17 07:00:00 5.9 8 Nordeste 10 Nordeste 0 911 -- 65
2020-11-17 06:00:00 5.9 8 Este 9 Este 0 911 -- 65
2020-11-17 05:00:00 6.3 7 Este 12 Este 0 910.8 -- 63
2020-11-17 04:00:00 6.2 7 Este 10 Nordeste 0 910.8 -- 64
2020-11-17 03:00:00 6.1 7 Nordeste 10 Este 0 910.9 -- 69
2020-11-17 02:00:00 6.2 5 Este 7 Este 0 911.1 -- 74
2020-11-17 01:00:00 6.5 6 Este 8 Nordeste 0 911.5 -- 72
2020-11-17 00:00:00 6.8 4 Este 12 Sudeste 0 911.4 -- 67
2020-11-16 23:00:00 7.3 7 Nordeste 9 Nordeste 0 911.5 -- 72
2020-11-16 22:00:00 8.2 4 Este 6 Este 0 911.4 -- 84
2020-11-16 21:00:00 9.3 8 Este 14 Este 0 911.2 -- 79
2020-11-16 20:00:00 10.6 5 Este 10 Este 0 910.9 -- 80
2020-11-16 19:00:00 12.1 6 Norte 11 Noroeste 0 910.3 -- 75
2020-11-16 18:00:00 13.4 4 Norte 9 Oeste 0 910 -- 69
2020-11-16 17:00:00 14.7 3 Norte 14 Oeste 0 909.9 -- 65
2020-11-16 16:00:00 15 7 Oeste 15 Oeste 0 909.6 -- 59
2020-11-16 15:00:00 15.7 7 Sudoeste 14 Oeste 0 909.2 -- 61
2020-11-16 14:00:00 15.4 6 Sudoeste 18 Noroeste 0 909.7 -- 64
2020-11-16 13:00:00 15.1 6 Sudoeste 17 Noroeste 0 910.1 -- 66
2020-11-16 12:00:00 13.4 4 Oeste 13 Noroeste 0 910.1 -- 78
2020-11-16 11:00:00 13.4 3 Norte 9 Oeste 0 909.7 -- 82
2020-11-16 10:00:00 12.1 3 Oeste 6 Oeste 0 909.6 -- 90
2020-11-16 09:00:00 11.1 4 Sur 9 Sudoeste 0 909.4 -- 96
2020-11-16 08:00:00 11.2 5 Oeste 10 Oeste 0 908.7 -- 98
2020-11-16 07:00:00 11.4 6 Oeste 16 Oeste 0 908.4 -- 97
2020-11-16 06:00:00 11.6 7 Oeste 16 Oeste 0 908.2 -- 98
2020-11-16 05:00:00 11.7 5 Oeste 16 Oeste 0 907.7 -- 98
2020-11-16 04:00:00 11.9 13 Oeste 21 Oeste 0.2 907.6 -- 96
2020-11-16 03:00:00 12.5 13 Oeste 21 Oeste 0 907.8 -- 90
2020-11-16 02:00:00 13 14 Oeste 20 Oeste 0 907.8 -- 85
2020-11-16 01:00:00 13.1 7 Sudoeste 18 Sudoeste 0 907.7 -- 86
2020-11-16 00:00:00 13.3 14 Sudoeste 19 Sudoeste 0 908.1 -- 84
2020-11-15 23:00:00 13.6 11 Sudoeste 17 Sudoeste 0 907.8 -- 78
2020-11-15 22:00:00 14 8 Sudoeste 19 Sudoeste 0 907.3 -- 76
2020-11-15 21:00:00 13.8 11 Sudoeste 21 Sudoeste 0 906.8 -- 77
2020-11-15 20:00:00 13.9 9 Sudoeste 14 Sudoeste 0 906.6 -- 76
2020-11-15 19:00:00 13.9 8 Sudoeste 21 Oeste 0 906.4 -- 76
2020-11-15 18:00:00 15.2 18 Oeste 33 Sudoeste 0 906.1 -- 69
2020-11-15 17:00:00 16.1 23 Sudoeste 46 Oeste 0 905.9 -- 65
2020-11-15 16:00:00 16.7 31 Oeste 48 Oeste 0 905.5 -- 64
2020-11-15 15:00:00 16.2 18 Oeste 31 Oeste 0 905.4 -- 71
2020-11-15 14:00:00 16.7 18 Oeste 25 Oeste 0 905.6 -- 71
2020-11-15 13:00:00 16.5 14 Oeste 28 Oeste 0 905.8 -- 70
2020-11-15 12:00:00 17 19 Oeste 32 Oeste 0 906 -- 66
2020-11-15 11:00:00 16 13 Sudoeste 27 Sudoeste 0 905.9 -- 67
2020-11-15 10:00:00 14.5 13 Sudoeste 24 Sudoeste 0 906.1 -- 70
2020-11-15 09:00:00 13.9 12 Sudoeste 20 Sur 0 905.8 -- 71
2020-11-15 08:00:00 13.4 9 Sudoeste 15 Sur 0 905.2 -- 71
2020-11-15 07:00:00 12.4 12 Sur 17 Sur 0 904.9 -- 75
2020-11-15 06:00:00 12.3 8 Sudeste 14 Sur 0 904.9 -- 78
2020-11-15 05:00:00 12.1 10 Sudeste 15 Sudeste 0 904.7 -- 77
2020-11-15 04:00:00 11.7 12 Sudeste 17 Sudeste 0 905 -- 80
2020-11-15 03:00:00 11 10 Sur 14 Sur 0 905.6 -- 79
2020-11-15 02:00:00 10.6 10 Sudeste 15 Sudeste 0 905.8 -- 79
2020-11-15 01:00:00 10.2 12 Sudeste 14 Sur 0 906.1 -- 84
2020-11-15 00:00:00 10.6 11 Sudeste 16 Sudeste 0 906.2 -- 86
2020-11-14 23:00:00 10.7 10 Sudeste 13 Sur 0 906.4 -- 86
2020-11-14 22:00:00 11.8 3 Sur 7 Este 0 906.3 -- 83
2020-11-14 21:00:00 11.6 6 Sudeste 10 Sudoeste 0 905.7 -- 86
2020-11-14 20:00:00 11.9 8 Sudoeste 12 Sudoeste 0.2 905.8 -- 82
2020-11-14 19:00:00 12.5 8 Oeste 14 Oeste 0 905.2 -- 81
2020-11-14 18:00:00 13.7 6 Sudoeste 12 Sudoeste 0 904.5 -- 70
2020-11-14 17:00:00 14.6 8 Sudoeste 20 Sudoeste 0 904.4 -- 67
2020-11-14 16:00:00 15.7 15 Sudoeste 21 Sudoeste 0 904.2 -- 60
2020-11-14 15:00:00 14.7 9 Sudoeste 15 Sur 0 904.3 -- 66
2020-11-14 14:00:00 14.6 5 Sur 11 Sur 0 904.6 -- 69
2020-11-14 13:00:00 13.1 4 Sudoeste 9 Sudeste 0 905.2 -- 76
2020-11-14 12:00:00 12.4 5 Sudeste 11 Sudeste 0 905.7 -- 77
2020-11-14 11:00:00 10.8 9 Sudeste 12 Sur 0 905.8 -- 68
2020-11-14 10:00:00 9.7 2 Este 8 Este 0 905.7 -- 72
2020-11-14 09:00:00 9.2 2 Nordeste 6 Este 0 905.3 -- 68
2020-11-14 08:00:00 8.8 3 Nordeste 6 Nordeste 0 904.7 -- 69
2020-11-14 07:00:00 8.5 3 Este 5 Nordeste 0 904.5 -- 75
2020-11-14 06:00:00 8.6 3 Nordeste 6 Nordeste 0 904.4 -- 70
2020-11-14 05:00:00 8.4 4 Este 8 Nordeste 0 904.3 -- 70
2020-11-14 04:00:00 8.5 4 Este 11 Sudeste 0 904.6 -- 69
2020-11-14 03:00:00 8.6 3 Este 7 Este 0 905.2 -- 74
2020-11-14 02:00:00 8.4 2 Sudeste 7 Este 0 905.3 -- 75
2020-11-14 01:00:00 8.5 3 Sur 7 Sudoeste 0 905.5 -- 75
2020-11-14 00:00:00 8.8 5 Sudoeste 8 Este 0 905.6 -- 73
2020-11-13 23:00:00 8.9 5 Este 7 Nordeste 0 905.4 -- 74
2020-11-13 22:00:00 9.5 5 Nordeste 8 Este 0 905.3 -- 73
2020-11-13 21:00:00 10.2 10 Este 14 Este 0 905.4 -- 69
2020-11-13 20:00:00 10.3 5 Este 9 Este 0 905.5 -- 72
2020-11-13 19:00:00 10.7 6 Este 9 Este 0 905.4 -- 68
2020-11-13 18:00:00 11.5 5 Oeste 15 Noroeste 0 904.9 -- 64
2020-11-13 17:00:00 12.9 7 Noroeste 21 Nordeste 0 904.1 -- 57
2020-11-13 16:00:00 13.9 3 Norte 7 Oeste 0 904.1 -- 55
2020-11-13 15:00:00 13.5 4 Oeste 7 Oeste 0 905 -- 52
2020-11-13 14:00:00 12.4 5 Oeste 10 Noroeste 0 905.4 -- 63
2020-11-13 13:00:00 12.7 7 Oeste 14 Sudoeste 0 905.8 -- 63
2020-11-13 12:00:00 12.9 6 Sudoeste 12 Sudoeste 0 906.3 -- 65
2020-11-13 11:00:00 10.5 4 Sudeste 9 Sur 0 906.6 -- 73
2020-11-13 10:00:00 8.1 0 Calma 5 Nordeste 0 906.5 -- 76
2020-11-13 09:00:00 6.4 3 Este 6 Este 0 905.9 -- 73
2020-11-13 08:00:00 5.7 4 Sudeste 9 Sudeste 0 905.2 -- 75
2020-11-13 07:00:00 6.5 4 Nordeste 6 Nordeste 0 904.8 -- 71
2020-11-13 06:00:00 6.7 2 Este 11 Sudeste 0 904.8 -- 75
2020-11-13 05:00:00 7.2 5 Este 8 Sudeste 0 904.9 -- 74
2020-11-13 04:00:00 7.8 4 Este 7 Este 0 904.7 -- 68
2020-11-13 03:00:00 8.5 4 Este 15 Sudeste 0 904.7 -- 59
2020-11-13 02:00:00 8.7 3 Sudeste 14 Sudeste 0 905.1 -- 60
2020-11-13 01:00:00 9.4 9 Este 17 Este 0 905.4 -- 54
2020-11-13 00:00:00 8.6 3 Nordeste 8 Sudeste 0 905.5 -- 67
2020-11-12 23:00:00 8.7 4 Sudeste 8 Nordeste 0 905.7 -- 72
2020-11-12 22:00:00 9.4 7 Este 13 Este 0 905.5 -- 77
2020-11-12 21:00:00 9.3 4 Sudeste 8 Sudeste 0 905.5 -- 79
2020-11-12 20:00:00 10.2 5 Sur 10 Sudoeste 0 905.6 -- 73
2020-11-12 19:00:00 11.6 4 Nordeste 9 Nordeste 0 905.2 -- 65
2020-11-12 18:00:00 12.7 4 Nordeste 10 Nordeste 0 905 -- 59
2020-11-12 17:00:00 13.7 6 Norte 12 Nordeste 0 905.3 -- 56
2020-11-12 16:00:00 14.2 4 Noroeste 10 Noroeste 0 905.4 -- 57
2020-11-12 15:00:00 14.4 4 Norte 12 Noroeste 0 905.7 -- 60
2020-11-12 14:00:00 14.2 3 Oeste 9 Noroeste 0 906.3 -- 62
2020-11-12 13:00:00 13.9 4 Oeste 14 Norte 0 907 -- 62
2020-11-12 12:00:00 12.8 5 Nordeste 10 Nordeste 0 907.8 -- 63
2020-11-12 11:00:00 10.6 3 Nordeste 5 Norte 0 908.2 -- 67
2020-11-12 10:00:00 9.3 4 Sudeste 8 Sudeste 0 908.3 -- 70
2020-11-12 09:00:00 8.1 4 Nordeste 12 Este 0 908 -- 69
2020-11-12 08:00:00 7.7 5 Este 12 Este 0 907.6 -- 72
2020-11-12 07:00:00 8.4 5 Este 11 Este 0 907.7 -- 74
2020-11-12 06:00:00 8 6 Este 11 Este 0 907.9 -- 70
2020-11-12 05:00:00 8.1 6 Este 14 Este 0 907.7 -- 63
2020-11-12 04:00:00 8 8 Este 14 Este 0 907.9 -- 67
2020-11-12 03:00:00 7.8 10 Sudeste 12 Sudeste 0 908.4 -- 69
2020-11-12 02:00:00 7.8 6 Nordeste 11 Este 0 908.7 -- 66
2020-11-12 01:00:00 8.2 7 Este 14 Este 0 908.9 -- 65
2020-11-12 00:00:00 7.5 8 Este 12 Este 0 909 -- 71
2020-11-11 23:00:00 7.3 4 Este 11 Este 0 908.8 -- 77
2020-11-11 22:00:00 8 6 Este 16 Sudeste 0 908.5 -- 76
2020-11-11 21:00:00 7.9 10 Sudeste 17 Sudeste 0 908.7 -- 80
2020-11-11 20:00:00 9.4 4 Este 15 Este 0 908.6 -- 77
2020-11-11 19:00:00 10.6 4 Norte 8 Noroeste 0 908.5 -- 68
2020-11-11 18:00:00 11.4 4 Este 12 Noroeste 0 908.2 -- 66
2020-11-11 17:00:00 12.6 5 Noroeste 22 Noroeste 0 908.2 -- 67
2020-11-11 16:00:00 14.5 14 Noroeste 24 Oeste 0 907.8 -- 62
2020-11-11 15:00:00 16.2 17 Sudoeste 27 Sudoeste 0 907.6 -- 43
2020-11-11 14:00:00 15.9 15 Oeste 26 Oeste 0 907.7 -- 41
2020-11-11 13:00:00 14.2 5 Norte 14 Oeste 0 908.2 -- 54
2020-11-11 12:00:00 13.3 7 Oeste 11 Oeste 0 908.7 -- 61
2020-11-11 11:00:00 11.9 3 Oeste 6 Oeste 0 909 -- 65
2020-11-11 10:00:00 9.6 3 Sur 5 Sur 0 909.2 -- 76
2020-11-11 09:00:00 6.8 0 Calma 9 Sudeste 0 909.1 -- 87
2020-11-11 08:00:00 5.1 2 Este 5 Oeste 0 908.8 -- 90
2020-11-11 07:00:00 5.2 2 Nordeste 6 Sudeste 0 909 -- 88
2020-11-11 06:00:00 4.9 4 Sudeste 5 Sudeste 0 909.2 -- 88
2020-11-11 05:00:00 5.3 2 Este 7 Este 0 909.3 -- 87
2020-11-11 04:00:00 4.8 4 Este 7 Nordeste 0 909.7 -- 88
2020-11-11 03:00:00 4.5 2 Este 5 Este 0 910.6 -- 91
2020-11-11 02:00:00 4.5 2 Este 6 Nordeste 0 911 -- 94
2020-11-11 01:00:00 4.5 2 Noroeste 9 Sudeste 0 911.6 -- 95
2020-11-11 00:00:00 4.8 6 Sur 9 Sur 0 911.7 -- 91
2020-11-10 23:00:00 6.2 4 Sur 8 Sudeste 0 911.6 -- 93
2020-11-10 22:00:00 6.8 7 Sudeste 11 Sur 0 911.5 -- 90
2020-11-10 21:00:00 7.6 3 Nordeste 10 Este 0 911.3 -- 87
2020-11-10 20:00:00 9 5 Nordeste 9 Este 0 911.2 -- 82
2020-11-10 19:00:00 10.2 5 Nordeste 12 Nordeste 0 911 -- 82
2020-11-10 18:00:00 11.8 4 Noroeste 11 Noroeste 0 911.3 -- 71
2020-11-10 17:00:00 13.1 7 Noroeste 13 Noroeste 0 911.1 -- 68
2020-11-10 16:00:00 13.8 7 Noroeste 13 Noroeste 0 910.8 -- 66
2020-11-10 15:00:00 13.8 6 Noroeste 14 Noroeste 0 910.8 -- 68
2020-11-10 14:00:00 13.1 6 Norte 13 Noroeste 0 911.5 -- 72
2020-11-10 13:00:00 12.6 7 Oeste 13 Noroeste 0 912.2 -- 74
2020-11-10 12:00:00 11.3 9 Oeste 12 Sudoeste 0 912.3 -- 79
2020-11-10 11:00:00 10.4 6 Oeste 9 Oeste 0 912.1 -- 80
2020-11-10 10:00:00 9.1 4 Oeste 6 Oeste 0 912 -- 83
2020-11-10 09:00:00 7.3 4 Nordeste 6 Este 0 911.6 -- 88
2020-11-10 08:00:00 6.1 4 Este 5 Este 0 911 -- 93
2020-11-10 07:00:00 6.8 2 Norte 8 Sudeste 0 910.7 -- 91
2020-11-10 06:00:00 7.2 6 Sudeste 8 Sudeste 0 910.5 -- 90
2020-11-10 05:00:00 6.9 2 Nordeste 4 Este 0 910.3 -- 89
2020-11-10 04:00:00 6.3 3 Este 5 Este 0 910.2 -- 90
2020-11-10 03:00:00 6 4 Este 7 Este 0 910.3 -- 89
2020-11-10 02:00:00 6.3 4 Este 8 Este 0 910.3 -- 86
2020-11-10 01:00:00 6.6 3 Este 8 Este 0 910.4 -- 86
2020-11-10 00:00:00 6.9 6 Este 8 Este 0 910.2 -- 87
2020-11-09 23:00:00 7.7 3 Sudeste 10 Sudeste 0 910.2 -- 84
2020-11-09 22:00:00 8.6 7 Sudeste 12 Sudeste 0 909.9 -- 82
2020-11-09 21:00:00 9 5 Este 8 Sudeste 0 909.8 -- 81
2020-11-09 20:00:00 9.9 3 Este 9 Norte 0 909.5 -- 76
2020-11-09 19:00:00 10.5 4 Noroeste 11 Oeste 0 909 -- 72
2020-11-09 18:00:00 11.9 8 Oeste 18 Oeste 0 908.4 -- 68
2020-11-09 17:00:00 13.3 10 Oeste 19 Oeste 0 907.9 -- 64
2020-11-09 16:00:00 13.8 9 Oeste 19 Oeste 0 907.5 -- 62
2020-11-09 15:00:00 14 7 Noroeste 18 Noroeste 0 907.4 -- 64
2020-11-09 14:00:00 13.1 7 Noroeste 15 Noroeste 0 907.4 -- 65
2020-11-09 13:00:00 12.1 5 Noroeste 14 Oeste 0 907.7 -- 72
2020-11-09 12:00:00 11.6 6 Noroeste 14 Oeste 0 908.1 -- 76
2020-11-09 11:00:00 11.7 3 Oeste 9 Sudoeste 0 908 -- 78
2020-11-09 10:00:00 10.4 3 Oeste 7 Este 0 907.9 -- 87
2020-11-09 09:00:00 9 2 Nordeste 4 Nordeste 0 907.4 -- 88
2020-11-09 08:00:00 8.4 4 Nordeste 11 Sudeste 0 906.4 -- 93
2020-11-09 07:00:00 8.5 7 Sudeste 11 Oeste 0 905.9 -- 91
2020-11-09 06:00:00 9.5 6 Oeste 26 Oeste 0 905.4 -- 87
2020-11-09 05:00:00 10.8 18 Sur 29 Sur 0 905.4 -- 74
2020-11-09 04:00:00 10.5 5 Sudeste 15 Sudeste 0 904.9 -- 80
2020-11-09 03:00:00 10.3 11 Este 17 Sudeste 0 905 -- 80
2020-11-09 02:00:00 10.1 5 Este 12 Noroeste 0 905.3 -- 81
2020-11-09 01:00:00 10.2 5 Norte 17 Sudeste 0 905.5 -- 79
2020-11-09 00:00:00 11.3 12 Sudeste 19 Este 0 905.1 -- 71
2020-11-08 23:00:00 10.6 6 Sudeste 9 Sudeste 0.2 905.6 -- 78
2020-11-08 22:00:00 10.8 5 Sudeste 10 Sudeste 0 905.6 -- 75
2020-11-08 21:00:00 11 4 Sudeste 13 Sudeste 0 905.6 -- 73
2020-11-08 20:00:00 11.3 3 Noroeste 21 Sudeste 0 905.5 -- 72
2020-11-08 19:00:00 11.6 15 Sudeste 36 Sudeste 0 905.1 -- 68
2020-11-08 18:00:00 11.3 18 Sudeste 33 Sudeste 0 905 -- 70
2020-11-08 17:00:00 12.9 21 Sudeste 29 Sudeste 0 905 -- 64
2020-11-08 16:00:00 14.9 10 Sudoeste 19 Sudoeste 0 905.2 -- 52
2020-11-08 15:00:00 14.6 10 Este 27 Sudoeste 0 905.2 -- 53
2020-11-08 14:00:00 15.3 18 Sudoeste 29 Sudoeste 0 905.5 -- 56
2020-11-08 13:00:00 14.6 9 Norte 18 Noroeste 0 905.8 -- 50
2020-11-08 12:00:00 13 10 Noroeste 26 Sudeste 0 906.1 -- 68
2020-11-08 11:00:00 12.1 19 Sudeste 28 Sudeste 0 905.8 -- 64
2020-11-08 10:00:00 11.7 5 Sudoeste 10 Sudoeste 0 906.5 -- 67
2020-11-08 09:00:00 10.8 6 Este 19 Sudeste 0 906.1 -- 69
2020-11-08 08:00:00 8.6 13 Sudeste 18 Sudeste 0 905.6 -- 77
2020-11-08 07:00:00 8.3 5 Sudeste 13 Sudeste 0 905.9 -- 80
2020-11-08 06:00:00 8.3 9 Sur 15 Sudeste 0 906.2 -- 80
2020-11-08 05:00:00 7.3 5 Este 14 Sudeste 0 906.5 -- 85
2020-11-08 04:00:00 6.8 4 Este 9 Sudeste 0 906.8 -- 85
2020-11-08 03:00:00 6.8 3 Este 12 Sudeste 0 906.9 -- 85
2020-11-08 02:00:00 6.7 6 Este 9 Este 0 906.8 -- 86
2020-11-08 01:00:00 7 6 Este 14 Este 0 906.9 -- 87
2020-11-08 00:00:00 7.4 5 Este 14 Este 0 907 -- 86
2020-11-07 23:00:00 7.7 6 Este 13 Este 0 907 -- 90
2020-11-07 22:00:00 8.6 7 Este 10 Este 0 906.9 -- 92
2020-11-07 21:00:00 8.8 0 Calma 13 Sudoeste 0 906.6 -- 90
2020-11-07 20:00:00 9.9 10 Sudoeste 14 Sudoeste 0 906.5 -- 85
2020-11-07 19:00:00 10.5 3 Sur 21 Sudoeste 1.6 906.1 -- 92
2020-11-07 18:00:00 11.4 4 Sur 18 Sudoeste 0.2 905.2 -- 86
2020-11-07 17:00:00 12.5 6 Sudoeste 10 Sudoeste 0 904.7 -- 76
2020-11-07 16:00:00 12.5 4 Sur 13 Sudoeste 0 904.2 -- 79
2020-11-07 15:00:00 12 5 Sudoeste 15 Sudoeste 0 903.9 -- 82
2020-11-07 14:00:00 11.2 11 Sudoeste 30 Sudoeste 0.6 903.7 -- 86
2020-11-07 13:00:00 10.8 24 Sudoeste 41 Sudoeste 0.2 903.3 -- 82
2020-11-07 12:00:00 11.8 19 Sudoeste 31 Sudoeste 0 902.8 -- 75
2020-11-07 11:00:00 12.1 16 Sudoeste 26 Sudoeste 0 901.8 -- 73
2020-11-07 10:00:00 11 12 Sudoeste 21 Sur 0 901 -- 75
2020-11-07 09:00:00 10.4 8 Sudoeste 28 Sudeste 0 900 -- 79
2020-11-07 08:00:00 10.9 18 Sudeste 33 Sur 0 899.3 -- 78
2020-11-07 07:00:00 10.8 23 Sur 39 Sur 0 899.2 -- 80
2020-11-07 06:00:00 10.8 33 Sudeste 45 Sudeste 0 898 -- 81
2020-11-07 05:00:00 11.4 26 Sur 59 Sur 0 898.5 -- 75
2020-11-07 04:00:00 12.7 37 Sur 60 Sur 0 897.2 -- 66
2020-11-07 03:00:00 10.8 21 Sudeste 50 Sur 1.4 899.1 -- 80
2020-11-07 02:00:00 10.8 35 Sur 50 Sur 0.4 900.1 -- 77
2020-11-07 01:00:00 11.5 18 Sur 34 Sur 0.6 900.8 -- 85
2020-11-07 00:00:00 12.9 17 Sur 52 Sur 0.6 900.5 -- 79
2020-11-06 23:00:00 13.9 24 Sur 42 Sudeste 0 900.4 -- 71
2020-11-06 22:00:00 13.6 17 Sudeste 33 Sur 0 900.3 -- 76
2020-11-06 21:00:00 12.7 32 Sudeste 81 Sur 4.8 900.2 -- 80
2020-11-06 20:00:00 13.7 28 Sudeste 47 Este 0.4 899.9 -- 78
2020-11-06 19:00:00 15.1 21 Este 41 Este 0 899 -- 67
2020-11-06 18:00:00 15.3 16 Este 49 Sudeste 0 899.7 -- 65
2020-11-06 17:00:00 16.5 21 Este 38 Este 0 900 -- 61
2020-11-06 16:00:00 17.1 24 Este 48 Este 0 900.2 -- 59
2020-11-06 15:00:00 16.9 29 Sudeste 49 Este 0 900.3 -- 61
2020-11-06 14:00:00 17.1 34 Este 63 Sudeste 0 900.4 -- 57
2020-11-06 13:00:00 17.7 36 Sudeste 64 Este 0 901.3 -- 52
2020-11-06 12:00:00 17.3 35 Sudeste 65 Este 0 901.7 -- 51
2020-11-06 11:00:00 15.1 40 Este 58 Este 0 901.5 -1.7 63
2020-11-06 10:00:00 14.4 34 Este 54 Este 0 902.2 -- 65
2020-11-06 09:00:00 13.3 27 Este 44 Este 0 902.6 -- 68
2020-11-06 08:00:00 11.6 14 Este 32 Sudeste 0 903.2 -- 71
2020-11-06 07:00:00 12.6 27 Sudeste 51 Sudeste 0 903.5 -- 66
2020-11-06 06:00:00 12.5 29 Sudeste 42 Sur 0 903.5 -- 68
2020-11-06 05:00:00 11.9 23 Sudeste 43 Sudeste 0 903.7 -- 73
2020-11-06 04:00:00 12.6 31 Sudeste 52 Sudeste 0 903.5 -- 68
2020-11-06 03:00:00 12.3 35 Sudeste 66 Sudeste 0 902.7 -- 72
2020-11-06 02:00:00 12.3 46 Sudeste 64 Sudeste 0 902.4 -- 74
2020-11-06 01:00:00 12.4 11 Este 52 Sudeste 0 903.1 -- 73
2020-11-06 00:00:00 12.3 27 Sudeste 47 Sudeste 0 903.4 -- 75
2020-11-05 23:00:00 12.2 28 Sudeste 46 Sudeste 0 903.6 -- 77
2020-11-05 22:00:00 11.2 24 Este 38 Este 0 903.7 -- 78
2020-11-05 21:00:00 11.4 22 Este 44 Este 0 903.7 -- 77
2020-11-05 20:00:00 11.5 35 Este 63 Este 0 902.5 -- 76
2020-11-05 19:00:00 11.1 26 Este 45 Este 0.2 902.6 -- 79
2020-11-05 18:00:00 10.8 18 Este 36 Este 1 903 -- 80
2020-11-05 17:00:00 11.5 14 Este 38 Sudeste 0.2 903.2 -- 78
2020-11-05 16:00:00 12.1 32 Sudeste 49 Sudeste 0 903 -- 74
2020-11-05 15:00:00 12.9 24 Sudeste 57 Sudeste 0 903.1 -- 73
2020-11-05 14:00:00 12.6 35 Este 57 Este 0 903 -- 73
2020-11-05 13:00:00 12.2 29 Este 50 Este 0 903.6 -- 74
2020-11-05 12:00:00 12 31 Este 55 Este 0 903.8 -- 73
2020-11-05 11:00:00 10.6 35 Este 50 Este 0.4 904.3 -- 79
2020-11-05 10:00:00 9.6 32 Este 52 Este 0.6 904.6 -- 81
2020-11-05 09:00:00 9.6 30 Este 54 Este 0.2 904.6 -- 79
2020-11-05 08:00:00 10.4 35 Este 56 Este 0 903.5 -- 71
2020-11-05 07:00:00 10.3 29 Este 55 Este 0 902.9 -- 69
2020-11-05 06:00:00 10.4 36 Este 55 Este 0 903.2 -- 69
2020-11-05 05:00:00 10.4 25 Este 47 Este 0 903.8 -- 71
2020-11-05 04:00:00 10.4 30 Este 42 Este 0 903.8 -- 72
2020-11-05 03:00:00 10.4 29 Este 46 Este 0 903.6 -- 73
2020-11-05 02:00:00 9.4 27 Este 43 Este 0.2 903.7 -- 79
2020-11-05 01:00:00 8.7 21 Este 37 Este 0 904.1 -- 81
2020-11-05 00:00:00 8.6 19 Este 31 Este 0 903.8 -- 77
2020-11-04 23:00:00 8.4 16 Nordeste 35 Este 0 903.8 -- 79
2020-11-04 22:00:00 8.7 18 Este 40 Este 0 903.6 -- 76
2020-11-04 21:00:00 8.1 18 Este 36 Este 0 902.8 -- 83
2020-11-04 20:00:00 7.4 13 Este 26 Este 0 902.8 -- 88
2020-11-04 19:00:00 6.4 2 Sudoeste 8 Oeste 0 902.4 -- 96
2020-11-04 18:00:00 6.8 10 Sudoeste 20 Sudoeste 0 902.2 -- 95
2020-11-04 17:00:00 7.4 9 Sudoeste 15 Sudoeste 0.2 902.2 -- 92
2020-11-04 16:00:00 8 7 Oeste 11 Oeste 0 902.2 -- 86
2020-11-04 15:00:00 8.3 6 Sudoeste 14 Sudoeste 0 902.3 -- 84
2020-11-04 14:00:00 8.3 8 Sudoeste 13 Sudoeste 0 903 -- 85
2020-11-04 13:00:00 7.7 8 Sudoeste 14 Noroeste 0 903.8 -- 86
2020-11-04 12:00:00 6.3 6 Sudoeste 13 Oeste 0 904.8 -- 92
2020-11-04 11:00:00 6 7 Oeste 12 Oeste 0 905.1 -0.5 93
2020-11-04 10:00:00 5.5 3 Nordeste 12 Nordeste 0 905.3 -- 98
2020-11-04 09:00:00 4.7 4 Nordeste 13 Nordeste 0 905.3 -- 99
2020-11-04 08:00:00 4.4 4 Noroeste 10 Noroeste 0 905.6 -- 99
2020-11-04 07:00:00 4.4 3 Norte 12 Oeste 0 906 -- 99
2020-11-04 06:00:00 4.7 8 Oeste 10 Sudoeste 0 906.5 -- 98
2020-11-04 05:00:00 4.7 4 Noroeste 13 Oeste 0 906.9 -- 95
2020-11-04 04:00:00 5.5 3 Norte 10 Norte 0 907.4 -- 95
2020-11-04 03:00:00 5.7 6 Noroeste 12 Norte 0 908.1 -- 94
2020-11-04 02:00:00 6 5 Nordeste 15 Nordeste 0 908.7 -- 94
2020-11-04 01:00:00 6.4 2 Oeste 10 Oeste 0 909.7 -- 96
2020-11-04 00:00:00 6.5 4 Oeste 12 Nordeste 0 910.4 -- 95
2020-11-03 23:00:00 6.5 10 Nordeste 19 Nordeste 0 910.8 -- 95
2020-11-03 22:00:00 7.3 8 Norte 17 Norte 0 911 -- 93
2020-11-03 21:00:00 8.3 5 Nordeste 12 Norte 0.2 911.2 -- 95
2020-11-03 20:00:00 8.2 4 Noroeste 17 Nordeste 0 911.6 -- 97
2020-11-03 19:00:00 8.2 6 Nordeste 17 Nordeste 0 911.6 -- 96
2020-11-03 18:00:00 8.8 8 Norte 23 Noroeste 0 911.5 -- 93
2020-11-03 17:00:00 9.5 5 Noroeste 17 Norte 0 911.2 -- 95
2020-11-03 16:00:00 9.3 8 Norte 17 Norte 0 911.5 -- 95
2020-11-03 15:00:00 9.2 6 Norte 12 Noroeste 0 911.5 -- 97
2020-11-03 14:00:00 9.2 5 Norte 15 Noroeste 0.2 911.7 -- 99
2020-11-03 13:00:00 9.1 6 Norte 15 Norte 0.2 911.9 -- 99
2020-11-03 12:00:00 9.1 10 Sudoeste 15 Sudoeste 0.2 912 -- 99
2020-11-03 11:00:00 8.8 12 Sudoeste 23 Oeste 0.2 911.8 -- 99
2020-11-03 10:00:00 8.9 15 Sudoeste 27 Sudoeste 0.6 911.7 -- 99
2020-11-03 09:00:00 10.1 14 Sudoeste 25 Oeste 0.6 910.8 -- 98
2020-11-03 08:00:00 12.1 7 Sudeste 15 Sudeste 3 909.7 -- 98
2020-11-03 07:00:00 12 6 Noroeste 11 Noroeste 3.2 909.5 -- 97
2020-11-03 06:00:00 12.2 5 Noroeste 8 Noroeste 0.8 909.5 -- 95
2020-11-03 05:00:00 12.4 4 Sur 6 Sudoeste 0 909.2 -- 91
2020-11-03 04:00:00 12.7 6 Sudoeste 8 Sudoeste 0 909.5 -- 87
2020-11-03 03:00:00 13 0 Calma 6 Sudeste 0 909.7 -- 83
2020-11-03 02:00:00 12.9 4 Sudeste 7 Sudeste 0 909.4 -- 85
2020-11-03 01:00:00 12.5 3 Nordeste 7 Sudeste 0 909.5 -- 86
2020-11-03 00:00:00 12.4 3 Sudeste 11 Sudeste 0 909.5 -- 86
2020-11-02 23:00:00 13 3 Este 5 Sudeste 0 909.6 -- 84
2020-11-02 22:00:00 13.3 8 Sudeste 10 Sudeste 0 909.8 -- 83
2020-11-02 21:00:00 13.5 7 Sudeste 9 Sudeste 0 909.8 -- 82
2020-11-02 20:00:00 13.8 4 Este 10 Oeste 0 909.8 -- 80
2020-11-02 19:00:00 14.3 5 Oeste 9 Noroeste 0 909.3 -- 79
2020-11-02 18:00:00 15.4 4 Oeste 6 Oeste 0 908.6 -- 75
2020-11-02 17:00:00 16.1 3 Oeste 8 Noroeste 0 908.3 -- 71
2020-11-02 16:00:00 16.5 4 Noroeste 7 Norte 0 908.3 -- 68
2020-11-02 15:00:00 16.6 3 Oeste 10 Oeste 0 908.4 -- 67
2020-11-02 14:00:00 16.7 6 Oeste 12 Sudoeste 0 909.1 -- 67
2020-11-02 13:00:00 15.6 5 Sudoeste 11 Sudoeste 0 909.9 -- 74
2020-11-02 12:00:00 14.5 4 Oeste 10 Oeste 0 910.5 -- 82
2020-11-02 11:00:00 13.5 4 Oeste 7 Oeste 0 910.5 -- 87
2020-11-02 10:00:00 12.3 2 Noroeste 4 Noroeste 0 910.3 -- 91
2020-11-02 09:00:00 12 0 Calma 8 Noroeste 0 909.8 -- 87
2020-11-02 08:00:00 12.2 4 Oeste 8 Sur 0 909.3 -- 88
2020-11-02 07:00:00 12.3 4 Sur 6 Sur 0 909.1 -- 88
2020-11-02 06:00:00 11.9 3 Sudeste 6 Sudeste 0 909.2 -- 85
2020-11-02 05:00:00 11.4 2 Sudeste 4 Sudeste 0 909 -- 80
2020-11-02 04:00:00 11 3 Este 4 Nordeste 0 908.9 -- 78
2020-11-02 03:00:00 11 3 Este 5 Este 0 908.9 -- 77
2020-11-02 02:00:00 10.6 4 Este 6 Este 0 909.1 -- 78
2020-11-02 01:00:00 10.6 3 Nordeste 6 Este 0 909.5 -- 77
2020-11-02 00:00:00 10.8 5 Este 8 Este 0 909.8 -- 74